sensor_id;sensor_type;location;lat;lon;timestamp;pressure;altitude;pressure_sealevel;temperature;humidity
64402;BME280;50724;42.376;23.768;2023-11-21T00:01:51;92934.84;;;3.49;98.88
64402;BME280;50724;42.376;23.768;2023-11-21T00:04:52;92927.63;;;3.43;99.48
64402;BME280;50724;42.376;23.768;2023-11-21T00:07:52;92921.38;;;3.46;99.90
64402;BME280;50724;42.376;23.768;2023-11-21T00:11:03;92935.94;;;3.47;100.00
64402;BME280;50724;42.376;23.768;2023-11-21T00:14:05;92938.78;;;3.44;100.00
64402;BME280;50724;42.376;23.768;2023-11-21T00:17:06;92947.44;;;3.64;100.00
64402;BME280;50724;42.376;23.768;2023-11-21T00:20:07;92943.78;;;3.36;100.00
64402;BME280;50724;42.376;23.768;2023-11-21T00:23:07;92940.66;;;3.12;100.00
64402;BME280;50724;42.376;23.768;2023-11-21T00:26:09;92935.47;;;3.12;100.00
64402;BME280;50724;42.376;23.768;2023-11-21T00:29:10;92938.88;;;3.12;100.00
64402;BME280;50724;42.376;23.768;2023-11-21T00:32:11;92935.22;;;3.15;100.00
64402;BME280;50724;42.376;23.768;2023-11-21T00:35:11;92925.31;;;2.99;100.00
64402;BME280;50724;42.376;23.768;2023-11-21T00:38:11;92932.69;;;3.04;100.00
64402;BME280;50724;42.376;23.768;2023-11-21T00:41:12;92932.56;;;3.05;100.00
64402;BME280;50724;42.376;23.768;2023-11-21T00:44:13;92928.91;;;3.08;100.00
64402;BME280;50724;42.376;23.768;2023-11-21T00:47:13;92926.59;;;3.05;100.00
64402;BME280;50724;42.376;23.768;2023-11-21T00:50:14;92926.72;;;3.03;100.00
64402;BME280;50724;42.376;23.768;2023-11-21T00:53:14;92930.34;;;3.21;100.00
64402;BME280;50724;42.376;23.768;2023-11-21T00:56:14;92923.56;;;3.20;100.00
64402;BME280;50724;42.376;23.768;2023-11-21T00:59:15;92929.78;;;3.38;100.00
64402;BME280;50724;42.376;23.768;2023-11-21T01:02:15;92925.50;;;3.28;100.00
64402;BME280;50724;42.376;23.768;2023-11-21T01:05:33;92929.97;;;3.26;100.00
64402;BME280;50724;42.376;23.768;2023-11-21T01:08:34;92931.06;;;3.23;100.00
64402;BME280;50724;42.376;23.768;2023-11-21T01:11:36;92930.31;;;3.12;100.00
64402;BME280;50724;42.376;23.768;2023-11-21T01:14:37;92924.69;;;3.07;100.00
64402;BME280;50724;42.376;23.768;2023-11-21T01:17:38;92930.47;;;3.20;100.00
64402;BME280;50724;42.376;23.768;2023-11-21T01:20:47;92924.16;;;3.33;100.00
64402;BME280;50724;42.376;23.768;2023-11-21T01:23:47;92926.28;;;3.19;100.00
64402;BME280;50724;42.376;23.768;2023-11-21T01:26:47;92927.47;;;3.15;100.00
64402;BME280;50724;42.376;23.768;2023-11-21T01:29:48;92929.28;;;3.24;100.00
64402;BME280;50724;42.376;23.768;2023-11-21T01:32:48;92923.03;;;3.26;100.00
64402;BME280;50724;42.376;23.768;2023-11-21T01:35:49;92910.56;;;3.31;100.00
64402;BME280;50724;42.376;23.768;2023-11-21T01:38:49;92909.19;;;3.27;100.00
64402;BME280;50724;42.376;23.768;2023-11-21T01:41:50;92904.56;;;3.31;100.00
64402;BME280;50724;42.376;23.768;2023-11-21T01:44:52;92898.53;;;3.21;100.00
64402;BME280;50724;42.376;23.768;2023-11-21T01:47:53;92905.09;;;3.25;100.00
64402;BME280;50724;42.376;23.768;2023-11-21T01:50:54;92899.22;;;3.23;100.00
64402;BME280;50724;42.376;23.768;2023-11-21T01:53:54;92910.00;;;3.28;100.00
64402;BME280;50724;42.376;23.768;2023-11-21T01:56:55;92902.25;;;3.28;100.00
64402;BME280;50724;42.376;23.768;2023-11-21T01:59:58;92893.19;;;3.73;100.00
64402;BME280;50724;42.376;23.768;2023-11-21T02:03:01;92892.34;;;4.03;100.00
64402;BME280;50724;42.376;23.768;2023-11-21T02:06:02;92887.34;;;4.40;99.40
64402;BME280;50724;42.376;23.768;2023-11-21T02:09:03;92887.75;;;4.45;98.40
64402;BME280;50724;42.376;23.768;2023-11-21T02:12:05;92891.16;;;4.26;99.23
64402;BME280;50724;42.376;23.768;2023-11-21T02:15:16;92898.19;;;4.05;100.00
64402;BME280;50724;42.376;23.768;2023-11-21T02:18:26;92899.22;;;3.83;100.00
64402;BME280;50724;42.376;23.768;2023-11-21T02:21:30;92886.22;;;3.64;100.00
64402;BME280;50724;42.376;23.768;2023-11-21T02:24:30;92887.84;;;3.65;100.00
64402;BME280;50724;42.376;23.768;2023-11-21T02:27:31;92884.22;;;3.37;100.00
64402;BME280;50724;42.376;23.768;2023-11-21T02:30:32;92885.34;;;3.24;100.00
64402;BME280;50724;42.376;23.768;2023-11-21T02:33:32;92885.72;;;3.19;100.00
64402;BME280;50724;42.376;23.768;2023-11-21T02:36:34;92883.03;;;3.21;100.00
64402;BME280;50724;42.376;23.768;2023-11-21T02:39:35;92885.50;;;3.22;100.00
64402;BME280;50724;42.376;23.768;2023-11-21T02:42:35;92882.75;;;3.24;100.00
64402;BME280;50724;42.376;23.768;2023-11-21T02:45:36;92894.63;;;3.06;100.00
64402;BME280;50724;42.376;23.768;2023-11-21T02:48:36;92887.13;;;3.23;100.00
64402;BME280;50724;42.376;23.768;2023-11-21T02:51:37;92888.50;;;3.27;100.00
64402;BME280;50724;42.376;23.768;2023-11-21T02:54:40;92885.63;;;3.21;100.00
64402;BME280;50724;42.376;23.768;2023-11-21T02:57:41;92873.97;;;3.06;100.00
64402;BME280;50724;42.376;23.768;2023-11-21T03:00:41;92876.81;;;2.82;100.00
64402;BME280;50724;42.376;23.768;2023-11-21T03:03:42;92880.16;;;2.94;100.00
64402;BME280;50724;42.376;23.768;2023-11-21T03:06:43;92883.88;;;3.01;100.00
64402;BME280;50724;42.376;23.768;2023-11-21T03:09:43;92887.84;;;3.05;100.00
64402;BME280;50724;42.376;23.768;2023-11-21T03:12:44;92888.41;;;3.08;100.00
64402;BME280;50724;42.376;23.768;2023-11-21T03:15:44;92887.78;;;2.95;100.00
64402;BME280;50724;42.376;23.768;2023-11-21T03:18:45;92906.19;;;3.02;100.00
64402;BME280;50724;42.376;23.768;2023-11-21T03:21:45;92899.56;;;3.09;100.00
64402;BME280;50724;42.376;23.768;2023-11-21T03:24:46;92909.13;;;3.18;100.00
64402;BME280;50724;42.376;23.768;2023-11-21T03:27:46;92907.09;;;3.21;100.00
64402;BME280;50724;42.376;23.768;2023-11-21T03:30:47;92890.72;;;3.32;100.00
64402;BME280;50724;42.376;23.768;2023-11-21T03:33:48;92888.38;;;3.29;100.00
64402;BME280;50724;42.376;23.768;2023-11-21T03:36:48;92883.44;;;3.26;100.00
64402;BME280;50724;42.376;23.768;2023-11-21T03:39:49;92883.03;;;3.51;100.00
64402;BME280;50724;42.376;23.768;2023-11-21T03:42:49;92870.19;;;3.40;100.00
64402;BME280;50724;42.376;23.768;2023-11-21T03:45:50;92873.34;;;3.43;100.00
64402;BME280;50724;42.376;23.768;2023-11-21T03:48:51;92884.13;;;3.48;100.00
64402;BME280;50724;42.376;23.768;2023-11-21T03:51:51;92888.91;;;3.53;100.00
64402;BME280;50724;42.376;23.768;2023-11-21T03:54:52;92897.63;;;3.62;100.00
64402;BME280;50724;42.376;23.768;2023-11-21T03:57:52;92893.06;;;3.75;100.00
64402;BME280;50724;42.376;23.768;2023-11-21T04:00:52;92904.16;;;3.96;100.00
64402;BME280;50724;42.376;23.768;2023-11-21T04:03:53;92901.69;;;3.94;100.00
64402;BME280;50724;42.376;23.768;2023-11-21T04:07:02;92892.78;;;3.78;100.00
64402;BME280;50724;42.376;23.768;2023-11-21T04:10:07;92886.34;;;3.63;100.00
64402;BME280;50724;42.376;23.768;2023-11-21T04:13:09;92881.53;;;3.48;100.00
64402;BME280;50724;42.376;23.768;2023-11-21T04:16:09;92882.34;;;3.49;100.00
64402;BME280;50724;42.376;23.768;2023-11-21T04:19:10;92874.84;;;3.46;100.00
64402;BME280;50724;42.376;23.768;2023-11-21T04:22:11;92876.00;;;3.63;100.00
64402;BME280;50724;42.376;23.768;2023-11-21T04:25:13;92880.47;;;3.51;100.00
64402;BME280;50724;42.376;23.768;2023-11-21T04:28:17;92872.41;;;3.44;100.00
64402;BME280;50724;42.376;23.768;2023-11-21T04:31:17;92872.06;;;3.59;100.00
64402;BME280;50724;42.376;23.768;2023-11-21T04:34:18;92876.31;;;3.39;100.00
64402;BME280;50724;42.376;23.768;2023-11-21T04:37:18;92878.09;;;3.38;100.00
64402;BME280;50724;42.376;23.768;2023-11-21T04:40:19;92871.28;;;3.37;100.00
64402;BME280;50724;42.376;23.768;2023-11-21T04:43:21;92881.25;;;3.42;100.00
64402;BME280;50724;42.376;23.768;2023-11-21T04:46:21;92880.53;;;3.40;100.00
64402;BME280;50724;42.376;23.768;2023-11-21T04:49:21;92871.28;;;3.37;100.00
64402;BME280;50724;42.376;23.768;2023-11-21T04:52:30;92879.00;;;3.28;100.00
64402;BME280;50724;42.376;23.768;2023-11-21T04:55:31;92876.91;;;3.22;100.00
64402;BME280;50724;42.376;23.768;2023-11-21T04:58:31;92880.19;;;3.24;100.00
64402;BME280;50724;42.376;23.768;2023-11-21T05:01:33;92883.44;;;3.16;100.00
64402;BME280;50724;42.376;23.768;2023-11-21T05:04:33;92887.78;;;3.16;100.00
64402;BME280;50724;42.376;23.768;2023-11-21T05:07:34;92879.56;;;3.11;100.00
64402;BME280;50724;42.376;23.768;2023-11-21T05:10:35;92869.44;;;3.19;100.00
64402;BME280;50724;42.376;23.768;2023-11-21T05:13:38;92868.28;;;3.32;100.00
64402;BME280;50724;42.376;23.768;2023-11-21T05:16:39;92872.47;;;3.33;100.00
64402;BME280;50724;42.376;23.768;2023-11-21T05:19:39;92867.69;;;3.29;100.00
64402;BME280;50724;42.376;23.768;2023-11-21T05:22:40;92865.25;;;3.27;100.00
64402;BME280;50724;42.376;23.768;2023-11-21T05:25:42;92874.75;;;3.27;100.00
64402;BME280;50724;42.376;23.768;2023-11-21T05:28:42;92879.16;;;3.36;100.00
64402;BME280;50724;42.376;23.768;2023-11-21T05:31:42;92875.41;;;3.19;100.00
64402;BME280;50724;42.376;23.768;2023-11-21T05:34:43;92880.50;;;3.30;100.00
64402;BME280;50724;42.376;23.768;2023-11-21T05:37:44;92877.16;;;3.39;100.00
64402;BME280;50724;42.376;23.768;2023-11-21T05:40:45;92869.94;;;3.43;100.00
64402;BME280;50724;42.376;23.768;2023-11-21T05:43:46;92871.22;;;3.58;100.00
64402;BME280;50724;42.376;23.768;2023-11-21T05:46:46;92875.16;;;3.53;100.00
64402;BME280;50724;42.376;23.768;2023-11-21T05:49:46;92870.94;;;3.52;100.00
64402;BME280;50724;42.376;23.768;2023-11-21T05:52:50;92871.63;;;3.54;100.00
64402;BME280;50724;42.376;23.768;2023-11-21T05:55:50;92879.84;;;3.78;100.00
64402;BME280;50724;42.376;23.768;2023-11-21T05:58:51;92888.47;;;3.88;100.00
64402;BME280;50724;42.376;23.768;2023-11-21T06:01:52;92893.28;;;4.02;100.00
64402;BME280;50724;42.376;23.768;2023-11-21T06:04:54;92897.78;;;4.09;100.00
64402;BME280;50724;42.376;23.768;2023-11-21T06:07:55;92901.09;;;4.21;100.00
64402;BME280;50724;42.376;23.768;2023-11-21T06:11:01;92896.88;;;4.39;100.00
64402;BME280;50724;42.376;23.768;2023-11-21T06:14:02;92889.28;;;4.57;100.00
64402;BME280;50724;42.376;23.768;2023-11-21T06:17:03;92892.25;;;4.91;100.00
64402;BME280;50724;42.376;23.768;2023-11-21T06:20:05;92889.38;;;5.13;100.00
64402;BME280;50724;42.376;23.768;2023-11-21T06:23:09;92891.13;;;5.22;100.00
64402;BME280;50724;42.376;23.768;2023-11-21T06:26:09;92885.78;;;5.23;100.00
64402;BME280;50724;42.376;23.768;2023-11-21T06:29:10;92891.59;;;5.44;99.42
64402;BME280;50724;42.376;23.768;2023-11-21T06:32:11;92893.47;;;5.62;97.91
64402;BME280;50724;42.376;23.768;2023-11-21T06:35:12;92902.00;;;5.81;96.06
64402;BME280;50724;42.376;23.768;2023-11-21T06:38:13;92899.53;;;5.89;94.13
64402;BME280;50724;42.376;23.768;2023-11-21T06:41:13;92895.97;;;5.81;95.09
64402;BME280;50724;42.376;23.768;2023-11-21T06:44:15;92899.94;;;5.85;97.17
64402;BME280;50724;42.376;23.768;2023-11-21T06:47:15;92910.97;;;5.96;97.78
64402;BME280;50724;42.376;23.768;2023-11-21T06:50:16;92902.66;;;5.93;92.63
64402;BME280;50724;42.376;23.768;2023-11-21T06:53:16;92904.81;;;6.24;89.62
64402;BME280;50724;42.376;23.768;2023-11-21T06:56:18;92899.66;;;6.60;86.13
64402;BME280;50724;42.376;23.768;2023-11-21T06:59:18;92898.31;;;6.73;83.82
64402;BME280;50724;42.376;23.768;2023-11-21T07:02:19;92900.34;;;6.97;82.62
64402;BME280;50724;42.376;23.768;2023-11-21T07:05:21;92904.06;;;7.38;79.60
64402;BME280;50724;42.376;23.768;2023-11-21T07:08:22;92913.31;;;7.58;78.18
64402;BME280;50724;42.376;23.768;2023-11-21T07:11:22;92907.50;;;7.90;77.27
64402;BME280;50724;42.376;23.768;2023-11-21T07:14:23;92908.13;;;8.25;75.58
64402;BME280;50724;42.376;23.768;2023-11-21T07:17:23;92915.41;;;8.48;74.27
64402;BME280;50724;42.376;23.768;2023-11-21T07:20:33;92910.84;;;8.50;75.47
64402;BME280;50724;42.376;23.768;2023-11-21T07:23:33;92907.97;;;8.69;76.39
64402;BME280;50724;42.376;23.768;2023-11-21T07:26:34;92901.97;;;8.84;76.76
64402;BME280;50724;42.376;23.768;2023-11-21T07:29:35;92907.69;;;8.96;72.53
64402;BME280;50724;42.376;23.768;2023-11-21T07:32:36;92903.78;;;8.92;72.36
64402;BME280;50724;42.376;23.768;2023-11-21T07:35:37;92898.25;;;8.95;71.54
64402;BME280;50724;42.376;23.768;2023-11-21T07:38:37;92903.78;;;9.08;70.43
64402;BME280;50724;42.376;23.768;2023-11-21T07:41:38;92899.22;;;9.26;71.05
64402;BME280;50724;42.376;23.768;2023-11-21T07:44:45;92902.94;;;9.64;73.63
64402;BME280;50724;42.376;23.768;2023-11-21T07:47:46;92897.59;;;9.57;72.27
64402;BME280;50724;42.376;23.768;2023-11-21T07:50:47;92899.19;;;9.75;72.21
64402;BME280;50724;42.376;23.768;2023-11-21T07:53:48;92899.94;;;10.07;67.32
64402;BME280;50724;42.376;23.768;2023-11-21T07:56:48;92897.19;;;9.93;68.03
64402;BME280;50724;42.376;23.768;2023-11-21T07:59:49;92898.28;;;10.06;67.23
64402;BME280;50724;42.376;23.768;2023-11-21T08:02:49;92884.69;;;10.27;62.52
64402;BME280;50724;42.376;23.768;2023-11-21T08:05:50;92883.03;;;10.34;62.03
64402;BME280;50724;42.376;23.768;2023-11-21T08:08:51;92880.81;;;10.54;61.87
64402;BME280;50724;42.376;23.768;2023-11-21T08:11:51;92885.00;;;10.71;61.40
64402;BME280;50724;42.376;23.768;2023-11-21T08:14:53;92885.81;;;10.71;60.36
64402;BME280;50724;42.376;23.768;2023-11-21T08:17:53;92881.41;;;10.94;60.51
64402;BME280;50724;42.376;23.768;2023-11-21T08:20:54;92884.91;;;11.10;62.69
64402;BME280;50724;42.376;23.768;2023-11-21T08:23:55;92881.88;;;11.21;60.09
64402;BME280;50724;42.376;23.768;2023-11-21T08:26:56;92887.81;;;11.15;61.40
64402;BME280;50724;42.376;23.768;2023-11-21T08:29:56;92895.66;;;11.15;63.04
64402;BME280;50724;42.376;23.768;2023-11-21T08:32:57;92893.25;;;11.28;61.95
64402;BME280;50724;42.376;23.768;2023-11-21T08:35:58;92904.16;;;11.39;61.34
64402;BME280;50724;42.376;23.768;2023-11-21T08:38:58;92903.81;;;11.20;60.58
64402;BME280;50724;42.376;23.768;2023-11-21T08:41:59;92899.41;;;11.20;59.95
64402;BME280;50724;42.376;23.768;2023-11-21T08:44:59;92894.91;;;11.06;60.72
64402;BME280;50724;42.376;23.768;2023-11-21T08:48:01;92895.44;;;11.01;60.96
64402;BME280;50724;42.376;23.768;2023-11-21T08:51:02;92887.41;;;11.03;61.26
64402;BME280;50724;42.376;23.768;2023-11-21T08:54:04;92882.28;;;11.10;62.15
64402;BME280;50724;42.376;23.768;2023-11-21T08:57:08;92888.50;;;11.31;60.06
64402;BME280;50724;42.376;23.768;2023-11-21T09:00:10;92876.47;;;11.22;61.03
64402;BME280;50724;42.376;23.768;2023-11-21T09:03:13;92880.66;;;11.09;62.17
64402;BME280;50724;42.376;23.768;2023-11-21T09:06:13;92867.22;;;11.12;62.93
64402;BME280;50724;42.376;23.768;2023-11-21T09:09:14;92869.72;;;11.05;63.19
64402;BME280;50724;42.376;23.768;2023-11-21T09:12:15;92867.81;;;10.99;63.54
64402;BME280;50724;42.376;23.768;2023-11-21T09:15:16;92869.94;;;10.95;64.55
64402;BME280;50724;42.376;23.768;2023-11-21T09:18:16;92864.38;;;10.76;65.10
64402;BME280;50724;42.376;23.768;2023-11-21T09:21:17;92858.41;;;10.90;63.51
64402;BME280;50724;42.376;23.768;2023-11-21T09:24:17;92846.16;;;10.82;63.20
64402;BME280;50724;42.376;23.768;2023-11-21T09:27:19;92849.75;;;10.81;64.01
64402;BME280;50724;42.376;23.768;2023-11-21T09:30:19;92849.72;;;11.12;61.99
64402;BME280;50724;42.376;23.768;2023-11-21T09:33:20;92851.84;;;11.31;61.30
64402;BME280;50724;42.376;23.768;2023-11-21T09:36:22;92851.06;;;11.45;61.19
64402;BME280;50724;42.376;23.768;2023-11-21T09:39:27;92852.88;;;11.82;57.69
64402;BME280;50724;42.376;23.768;2023-11-21T09:42:34;92846.63;;;12.12;53.57
64402;BME280;50724;42.376;23.768;2023-11-21T09:45:38;92845.03;;;12.11;53.22
64402;BME280;50724;42.376;23.768;2023-11-21T09:48:38;92842.69;;;12.16;53.26
64402;BME280;50724;42.376;23.768;2023-11-21T09:51:42;92819.72;;;12.04;53.44
64402;BME280;50724;42.376;23.768;2023-11-21T09:54:43;92789.78;;;11.98;52.22
64402;BME280;50724;42.376;23.768;2023-11-21T09:57:45;92783.66;;;12.06;52.37
64402;BME280;50724;42.376;23.768;2023-11-21T10:00:47;92770.31;;;12.36;52.43
64402;BME280;50724;42.376;23.768;2023-11-21T10:03:47;92774.81;;;12.64;50.53
64402;BME280;50724;42.376;23.768;2023-11-21T10:06:49;92766.44;;;12.68;51.54
64402;BME280;50724;42.376;23.768;2023-11-21T10:09:51;92760.53;;;12.66;50.79
64402;BME280;50724;42.376;23.768;2023-11-21T10:12:55;92748.97;;;12.61;51.72
64402;BME280;50724;42.376;23.768;2023-11-21T10:15:56;92740.72;;;12.64;50.52
64402;BME280;50724;42.376;23.768;2023-11-21T10:18:59;92725.63;;;12.45;51.46
64402;BME280;50724;42.376;23.768;2023-11-21T10:22:01;92702.13;;;12.58;51.39
64402;BME280;50724;42.376;23.768;2023-11-21T10:25:02;92704.63;;;12.87;51.15
64402;BME280;50724;42.376;23.768;2023-11-21T10:28:03;92692.72;;;13.12;50.06
64402;BME280;50724;42.376;23.768;2023-11-21T10:31:07;92692.78;;;12.97;50.30
64402;BME280;50724;42.376;23.768;2023-11-21T10:34:19;92699.00;;;12.96;50.83
64402;BME280;50724;42.376;23.768;2023-11-21T10:37:19;92707.00;;;12.82;50.95
64402;BME280;50724;42.376;23.768;2023-11-21T10:40:20;92707.88;;;12.68;50.80
64402;BME280;50724;42.376;23.768;2023-11-21T10:43:24;92703.94;;;12.57;50.02
64402;BME280;50724;42.376;23.768;2023-11-21T10:46:25;92694.75;;;12.25;51.11
64402;BME280;50724;42.376;23.768;2023-11-21T10:49:27;92694.47;;;12.56;51.82
64402;BME280;50724;42.376;23.768;2023-11-21T10:52:39;92692.09;;;12.40;51.42
64402;BME280;50724;42.376;23.768;2023-11-21T10:55:39;92691.06;;;12.41;51.77
64402;BME280;50724;42.376;23.768;2023-11-21T10:58:40;92680.81;;;12.46;50.94
64402;BME280;50724;42.376;23.768;2023-11-21T11:01:42;92676.09;;;12.56;51.99
64402;BME280;50724;42.376;23.768;2023-11-21T11:04:44;92672.59;;;12.70;51.39
64402;BME280;50724;42.376;23.768;2023-11-21T11:07:48;92671.16;;;12.47;51.13
64402;BME280;50724;42.376;23.768;2023-11-21T11:10:54;92670.31;;;12.67;51.99
64402;BME280;50724;42.376;23.768;2023-11-21T11:14:04;92669.25;;;12.62;51.41
64402;BME280;50724;42.376;23.768;2023-11-21T11:17:05;92670.75;;;12.50;52.38
64402;BME280;50724;42.376;23.768;2023-11-21T11:20:08;92678.59;;;11.86;54.33
64402;BME280;50724;42.376;23.768;2023-11-21T11:30:18;92703.78;;;11.87;54.67
64402;BME280;50724;42.376;23.768;2023-11-21T11:36:35;92715.16;;;11.36;55.96
64402;BME280;50724;42.376;23.768;2023-11-21T11:39:39;92720.34;;;11.06;56.47
64402;BME280;50724;42.376;23.768;2023-11-21T11:42:58;92713.25;;;11.15;58.07
64402;BME280;50724;42.376;23.768;2023-11-21T11:46:03;92695.38;;;11.77;55.01
64402;BME280;50724;42.376;23.768;2023-11-21T11:49:03;92671.72;;;11.85;55.57
64402;BME280;50724;42.376;23.768;2023-11-21T11:52:37;92664.28;;;11.89;55.93
64402;BME280;50724;42.376;23.768;2023-11-21T11:55:41;92652.56;;;11.85;56.09
64402;BME280;50724;42.376;23.768;2023-11-21T11:58:41;92641.84;;;12.01;55.92
64402;BME280;50724;42.376;23.768;2023-11-21T12:01:45;92634.13;;;12.14;55.16
64402;BME280;50724;42.376;23.768;2023-11-21T12:04:46;92620.41;;;12.33;54.25
64402;BME280;50724;42.376;23.768;2023-11-21T12:07:49;92604.19;;;12.51;53.25
64402;BME280;50724;42.376;23.768;2023-11-21T12:10:50;92598.94;;;12.78;52.75
64402;BME280;50724;42.376;23.768;2023-11-21T12:13:54;92627.34;;;12.96;51.70
64402;BME280;50724;42.376;23.768;2023-11-21T12:16:55;92621.66;;;12.92;52.20
64402;BME280;50724;42.376;23.768;2023-11-21T12:20:02;92629.25;;;12.81;52.54
64402;BME280;50724;42.376;23.768;2023-11-21T12:23:05;92627.56;;;12.46;53.79
64402;BME280;50724;42.376;23.768;2023-11-21T12:26:05;92632.88;;;12.31;54.27
64402;BME280;50724;42.376;23.768;2023-11-21T12:29:06;92634.88;;;12.29;54.18
64402;BME280;50724;42.376;23.768;2023-11-21T12:32:16;92626.63;;;12.11;55.16
64402;BME280;50724;42.376;23.768;2023-11-21T12:35:23;92639.28;;;12.28;54.30
64402;BME280;50724;42.376;23.768;2023-11-21T12:38:24;92643.47;;;12.02;55.46
64402;BME280;50724;42.376;23.768;2023-11-21T12:41:25;92641.84;;;12.01;55.47
64402;BME280;50724;42.376;23.768;2023-11-21T12:44:25;92637.72;;;11.92;55.44
64402;BME280;50724;42.376;23.768;2023-11-21T12:47:26;92639.78;;;11.46;57.29
64402;BME280;50724;42.376;23.768;2023-11-21T12:50:28;92647.00;;;11.44;57.52
64402;BME280;50724;42.376;23.768;2023-11-21T12:53:31;92637.78;;;11.48;57.83
64402;BME280;50724;42.376;23.768;2023-11-21T12:56:39;92628.41;;;11.53;58.08
64402;BME280;50724;42.376;23.768;2023-11-21T12:59:40;92631.38;;;11.50;58.01
64402;BME280;50724;42.376;23.768;2023-11-21T13:02:42;92636.50;;;11.58;57.34
64402;BME280;50724;42.376;23.768;2023-11-21T13:05:44;92633.53;;;11.47;56.35
64402;BME280;50724;42.376;23.768;2023-11-21T13:08:46;92640.53;;;11.25;57.60
64402;BME280;50724;42.376;23.768;2023-11-21T13:11:46;92632.00;;;11.38;57.51
64402;BME280;50724;42.376;23.768;2023-11-21T13:14:47;92630.22;;;11.38;56.88
64402;BME280;50724;42.376;23.768;2023-11-21T13:17:47;92627.88;;;11.29;56.64
64402;BME280;50724;42.376;23.768;2023-11-21T13:20:58;92639.44;;;11.20;57.59
64402;BME280;50724;42.376;23.768;2023-11-21T13:23:59;92636.34;;;11.16;57.10
64402;BME280;50724;42.376;23.768;2023-11-21T13:27:00;92640.59;;;11.02;57.87
64402;BME280;50724;42.376;23.768;2023-11-21T13:30:00;92649.22;;;10.74;58.70
64402;BME280;50724;42.376;23.768;2023-11-21T13:33:04;92639.81;;;10.65;58.48
64402;BME280;50724;42.376;23.768;2023-11-21T13:36:08;92640.56;;;10.59;59.23
64402;BME280;50724;42.376;23.768;2023-11-21T13:39:22;92645.59;;;10.60;59.59
64402;BME280;50724;42.376;23.768;2023-11-21T13:42:22;92645.25;;;10.63;59.29
64402;BME280;50724;42.376;23.768;2023-11-21T13:45:25;92641.13;;;10.69;58.45
64402;BME280;50724;42.376;23.768;2023-11-21T13:48:27;92633.38;;;10.75;59.19
64402;BME280;50724;42.376;23.768;2023-11-21T13:51:50;92631.38;;;10.77;58.44
64402;BME280;50724;42.376;23.768;2023-11-21T13:54:54;92630.38;;;10.64;59.16
64402;BME280;50724;42.376;23.768;2023-11-21T13:57:56;92638.53;;;10.46;59.70
64402;BME280;50724;42.376;23.768;2023-11-21T14:00:57;92640.22;;;10.39;60.83
64402;BME280;50724;42.376;23.768;2023-11-21T14:04:02;92649.94;;;10.30;60.52
64402;BME280;50724;42.376;23.768;2023-11-21T14:07:19;92635.47;;;10.43;60.23
64402;BME280;50724;42.376;23.768;2023-11-21T14:10:32;92629.03;;;10.30;60.29
64402;BME280;50724;42.376;23.768;2023-11-21T14:13:40;92630.81;;;10.07;61.48
64402;BME280;50724;42.376;23.768;2023-11-21T14:16:45;92634.25;;;10.08;61.87
64402;BME280;50724;42.376;23.768;2023-11-21T14:19:46;92632.94;;;10.04;63.11
64402;BME280;50724;42.376;23.768;2023-11-21T14:22:47;92632.66;;;9.99;61.79
64402;BME280;50724;42.376;23.768;2023-11-21T14:25:56;92626.91;;;9.81;61.86
64402;BME280;50724;42.376;23.768;2023-11-21T14:29:06;92623.47;;;9.57;63.13
64402;BME280;50724;42.376;23.768;2023-11-21T14:32:08;92624.97;;;9.13;66.43
64402;BME280;50724;42.376;23.768;2023-11-21T14:35:09;92618.09;;;9.20;68.04
64402;BME280;50724;42.376;23.768;2023-11-21T14:38:09;92614.97;;;9.33;66.94
64402;BME280;50724;42.376;23.768;2023-11-21T14:41:10;92612.66;;;8.91;68.94
64402;BME280;50724;42.376;23.768;2023-11-21T14:44:11;92616.22;;;8.27;73.39
64402;BME280;50724;42.376;23.768;2023-11-21T14:47:12;92614.72;;;8.24;74.38
64402;BME280;50724;42.376;23.768;2023-11-21T14:50:16;92613.56;;;8.51;72.89
64402;BME280;50724;42.376;23.768;2023-11-21T14:53:34;92613.09;;;8.48;71.57
64402;BME280;50724;42.376;23.768;2023-11-21T14:56:52;92611.97;;;8.10;74.71
64402;BME280;50724;42.376;23.768;2023-11-21T14:59:53;92604.47;;;8.07;74.30
64402;BME280;50724;42.376;23.768;2023-11-21T15:02:58;92615.88;;;7.82;76.29
64402;BME280;50724;42.376;23.768;2023-11-21T15:06:03;92618.44;;;7.57;78.11
64402;BME280;50724;42.376;23.768;2023-11-21T15:09:18;92623.94;;;7.38;78.60
64402;BME280;50724;42.376;23.768;2023-11-21T15:12:34;92625.03;;;7.28;79.18
64402;BME280;50724;42.376;23.768;2023-11-21T15:15:38;92627.16;;;7.32;78.94
64402;BME280;50724;42.376;23.768;2023-11-21T15:18:39;92635.75;;;7.25;79.69
64402;BME280;50724;42.376;23.768;2023-11-21T15:21:40;92631.72;;;6.88;82.03
64402;BME280;50724;42.376;23.768;2023-11-21T15:24:40;92632.06;;;6.93;81.82
64402;BME280;50724;42.376;23.768;2023-11-21T15:27:43;92620.69;;;6.94;82.66
64402;BME280;50724;42.376;23.768;2023-11-21T15:30:43;92628.13;;;6.89;82.75
64402;BME280;50724;42.376;23.768;2023-11-21T15:33:46;92618.69;;;6.80;80.67
64402;BME280;50724;42.376;23.768;2023-11-21T15:36:47;92618.38;;;6.83;80.01
64402;BME280;50724;42.376;23.768;2023-11-21T15:39:50;92622.72;;;6.75;81.17
64402;BME280;50724;42.376;23.768;2023-11-21T15:42:51;92605.50;;;6.74;80.44
64402;BME280;50724;42.376;23.768;2023-11-21T15:45:51;92608.34;;;6.88;78.94
64402;BME280;50724;42.376;23.768;2023-11-21T15:48:52;92603.44;;;6.85;78.79
64402;BME280;50724;42.376;23.768;2023-11-21T15:51:54;92599.81;;;6.70;79.88
64402;BME280;50724;42.376;23.768;2023-11-21T15:54:57;92618.53;;;6.22;84.64
64402;BME280;50724;42.376;23.768;2023-11-21T15:57:58;92607.19;;;6.23;85.56
64402;BME280;50724;42.376;23.768;2023-11-21T16:00:59;92610.91;;;6.21;84.49
64402;BME280;50724;42.376;23.768;2023-11-21T16:03:59;92604.63;;;6.06;85.34
64402;BME280;50724;42.376;23.768;2023-11-21T16:07:00;92607.28;;;6.14;85.71